EZY72PJ EGKK-EGJJ
Flight info
| Callsign | EZY72PJ |
|---|---|
| Flight time | 0h 36m |
| Altitude | 18000 |
| Route | NOVMA L620 SAM N63 LELNA |
| Aircraft | A320/M-SDE3FGHIRWY/LB1 |
Departure
| Time | 2026-04-17 21:09 |
|---|---|
| Airport | London Gatwick Airport (EGKK) |
Arrival
| Time | 2026-04-17 21:45 |
|---|---|
| Airport | Jersey Airport (EGJJ) |
| Time | Latitude | Longitude | Altitude | Speed | Heading |
|---|---|---|---|---|---|
| 2026-04-17 20:44 | 51.15776 | -0.17944 | 206 ft | 0 kts | 32° |
| 2026-04-17 21:00 | 51.15758 | -0.17963 | 217 ft | 4 kts | 37° |
| 2026-04-17 21:00 | 51.15737 | -0.17989 | 209 ft | 4 kts | 42° |
| 2026-04-17 21:00 | 51.15718 | -0.18019 | 213 ft | 4 kts | 49° |
| 2026-04-17 21:01 | 51.15701 | -0.18053 | 217 ft | 4 kts | 56° |
| 2026-04-17 21:01 | 51.15688 | -0.18090 | 205 ft | 4 kts | 69° |
| 2026-04-17 21:01 | 51.15682 | -0.18129 | 209 ft | 2 kts | 94° |
| 2026-04-17 21:01 | 51.15682 | -0.18133 | 209 ft | 0 kts | 95° |
| 2026-04-17 21:03 | 51.15685 | -0.18064 | 213 ft | 14 kts | 77° |
| 2026-04-17 21:04 | 51.15708 | -0.17899 | 211 ft | 15 kts | 78° |
| 2026-04-17 21:04 | 51.15730 | -0.17738 | 205 ft | 13 kts | 78° |
| 2026-04-17 21:04 | 51.15743 | -0.17640 | 207 ft | 0 kts | 78° |
| 2026-04-17 21:04 | 51.15750 | -0.17592 | 215 ft | 10 kts | 78° |
| 2026-04-17 21:05 | 51.15725 | -0.17505 | 210 ft | 8 kts | 149° |
| 2026-04-17 21:05 | 51.15672 | -0.17485 | 208 ft | 7 kts | 168° |
| 2026-04-17 21:05 | 51.15596 | -0.17458 | 209 ft | 14 kts | 167° |
| 2026-04-17 21:05 | 51.15492 | -0.17422 | 209 ft | 16 kts | 168° |
| 2026-04-17 21:06 | 51.15378 | -0.17383 | 210 ft | 18 kts | 168° |
| 2026-04-17 21:06 | 51.15264 | -0.17333 | 215 ft | 15 kts | 152° |
| 2026-04-17 21:06 | 51.15192 | -0.17251 | 209 ft | 9 kts | 136° |
| 2026-04-17 21:06 | 51.15187 | -0.17166 | 209 ft | 7 kts | 78° |
| 2026-04-17 21:07 | 51.15198 | -0.17094 | 205 ft | 8 kts | 77° |
| 2026-04-17 21:07 | 51.15220 | -0.16930 | 211 ft | 17 kts | 78° |
| 2026-04-17 21:07 | 51.15179 | -0.16800 | 210 ft | 14 kts | 165° |
| 2026-04-17 21:07 | 51.15116 | -0.16863 | 206 ft | 0 kts | 252° |
| 2026-04-17 21:08 | 51.15103 | -0.16940 | 207 ft | 33 kts | 258° |
| 2026-04-17 21:08 | 51.15001 | -0.17691 | 211 ft | 102 kts | 258° |
| 2026-04-17 21:08 | 51.14809 | -0.19104 | 215 ft | 156 kts | 258° |
| 2026-04-17 21:08 | 51.14597 | -0.20827 | 780 ft | 157 kts | 256° |
| 2026-04-17 21:09 | 51.14381 | -0.22555 | 1474 ft | 166 kts | 256° |
| 2026-04-17 21:09 | 51.14111 | -0.24445 | 1885 ft | 189 kts | 255° |
| 2026-04-17 21:09 | 51.13904 | -0.25880 | 2146 ft | 205 kts | 256° |
| 2026-04-17 21:09 | 51.13562 | -0.28234 | 2665 ft | 229 kts | 255° |
| 2026-04-17 21:10 | 51.13198 | -0.30766 | 3545 ft | 238 kts | 256° |
| 2026-04-17 21:10 | 51.12831 | -0.33368 | 4436 ft | 244 kts | 256° |
| 2026-04-17 21:10 | 51.12460 | -0.36032 | 5377 ft | 248 kts | 256° |
| 2026-04-17 21:10 | 51.12085 | -0.38735 | 6314 ft | 252 kts | 256° |
| 2026-04-17 21:11 | 51.11700 | -0.41480 | 7170 ft | 256 kts | 256° |
| 2026-04-17 21:11 | 51.11124 | -0.44154 | 8012 ft | 258 kts | 243° |
| 2026-04-17 21:11 | 51.10333 | -0.46728 | 8880 ft | 260 kts | 243° |
| 2026-04-17 21:11 | 51.09529 | -0.49317 | 9752 ft | 263 kts | 243° |
| 2026-04-17 21:12 | 51.08712 | -0.51929 | 10562 ft | 266 kts | 242° |
| 2026-04-17 21:12 | 51.07880 | -0.54579 | 11344 ft | 268 kts | 242° |
| 2026-04-17 21:12 | 51.07039 | -0.57249 | 12116 ft | 272 kts | 242° |
| 2026-04-17 21:12 | 51.06189 | -0.59955 | 12897 ft | 275 kts | 243° |
| 2026-04-17 21:13 | 51.05401 | -0.62737 | 13656 ft | 278 kts | 250° |
| 2026-04-17 21:13 | 51.04955 | -0.65719 | 14361 ft | 282 kts | 256° |
| 2026-04-17 21:13 | 51.04551 | -0.68776 | 15075 ft | 284 kts | 256° |
| 2026-04-17 21:13 | 51.04141 | -0.71840 | 15813 ft | 285 kts | 255° |
| 2026-04-17 21:14 | 51.03725 | -0.74930 | 16521 ft | 286 kts | 255° |
| 2026-04-17 21:14 | 51.03300 | -0.78075 | 16859 ft | 301 kts | 255° |
| 2026-04-17 21:14 | 51.02851 | -0.81374 | 17026 ft | 319 kts | 255° |
| 2026-04-17 21:14 | 51.02366 | -0.84923 | 17508 ft | 326 kts | 255° |
| 2026-04-17 21:15 | 51.01884 | -0.88473 | 18037 ft | 330 kts | 255° |
| 2026-04-17 21:15 | 51.01402 | -0.92028 | 18154 ft | 326 kts | 255° |
| 2026-04-17 21:15 | 51.00942 | -0.95430 | 18174 ft | 313 kts | 255° |
| 2026-04-17 21:15 | 51.00478 | -0.98830 | 18174 ft | 310 kts | 255° |
| 2026-04-17 21:16 | 51.00029 | -1.02119 | 18191 ft | 309 kts | 255° |
| 2026-04-17 21:16 | 50.99571 | -1.05458 | 18191 ft | 308 kts | 255° |
| 2026-04-17 21:16 | 50.99113 | -1.08788 | 18191 ft | 308 kts | 255° |
| 2026-04-17 21:16 | 50.98652 | -1.12106 | 18192 ft | 308 kts | 255° |
| 2026-04-17 21:17 | 50.98187 | -1.15437 | 18191 ft | 308 kts | 255° |
| 2026-04-17 21:17 | 50.97722 | -1.18755 | 18194 ft | 308 kts | 255° |
| 2026-04-17 21:17 | 50.97258 | -1.22078 | 18193 ft | 308 kts | 255° |
| 2026-04-17 21:17 | 50.96797 | -1.25394 | 18193 ft | 308 kts | 254° |
| 2026-04-17 21:18 | 50.96330 | -1.28725 | 18201 ft | 309 kts | 253° |
| 2026-04-17 21:18 | 50.95583 | -1.31889 | 18192 ft | 305 kts | 240° |
| 2026-04-17 21:18 | 50.94344 | -1.34601 | 18187 ft | 304 kts | 226° |
| 2026-04-17 21:18 | 50.92699 | -1.36713 | 18186 ft | 306 kts | 213° |
| 2026-04-17 21:19 | 50.90806 | -1.38271 | 18185 ft | 307 kts | 210° |
| 2026-04-17 21:19 | 50.88896 | -1.39790 | 18182 ft | 307 kts | 210° |
| 2026-04-17 21:19 | 50.86981 | -1.41319 | 18184 ft | 308 kts | 210° |
| 2026-04-17 21:19 | 50.85068 | -1.42848 | 18184 ft | 308 kts | 210° |
| 2026-04-17 21:20 | 50.83153 | -1.44379 | 18182 ft | 308 kts | 210° |
| 2026-04-17 21:20 | 50.81267 | -1.45882 | 18184 ft | 308 kts | 210° |
| 2026-04-17 21:20 | 50.79355 | -1.47401 | 18186 ft | 308 kts | 210° |
| 2026-04-17 21:20 | 50.77437 | -1.48922 | 18187 ft | 308 kts | 210° |
| 2026-04-17 21:21 | 50.75515 | -1.50445 | 18187 ft | 308 kts | 210° |
| 2026-04-17 21:21 | 50.73604 | -1.51967 | 18193 ft | 308 kts | 210° |
| 2026-04-17 21:21 | 50.71691 | -1.53488 | 18190 ft | 308 kts | 210° |
| 2026-04-17 21:21 | 50.69774 | -1.55006 | 18188 ft | 308 kts | 210° |
| 2026-04-17 21:22 | 50.67861 | -1.56517 | 18189 ft | 306 kts | 210° |
| 2026-04-17 21:22 | 50.65975 | -1.58005 | 18168 ft | 302 kts | 210° |
| 2026-04-17 21:22 | 50.64017 | -1.59307 | 18195 ft | 311 kts | 198° |
| 2026-04-17 21:22 | 50.61876 | -1.59954 | 18195 ft | 314 kts | 195° |
| 2026-04-17 21:23 | 50.59725 | -1.60546 | 18203 ft | 316 kts | 194° |
| 2026-04-17 21:23 | 50.57560 | -1.61130 | 18189 ft | 315 kts | 194° |
| 2026-04-17 21:23 | 50.55401 | -1.61710 | 18194 ft | 314 kts | 194° |
| 2026-04-17 21:23 | 50.53248 | -1.62290 | 18194 ft | 314 kts | 194° |
| 2026-04-17 21:24 | 50.51093 | -1.62874 | 18196 ft | 314 kts | 195° |
| 2026-04-17 21:24 | 50.48941 | -1.63458 | 18199 ft | 314 kts | 194° |
| 2026-04-17 21:24 | 50.46816 | -1.64035 | 18196 ft | 314 kts | 195° |
| 2026-04-17 21:24 | 50.44633 | -1.64631 | 18197 ft | 314 kts | 195° |
| 2026-04-17 21:25 | 50.42508 | -1.65212 | 18201 ft | 314 kts | 195° |
| 2026-04-17 21:25 | 50.40352 | -1.65803 | 18207 ft | 314 kts | 195° |
| 2026-04-17 21:25 | 50.38195 | -1.66395 | 18206 ft | 315 kts | 195° |
| 2026-04-17 21:25 | 50.36033 | -1.66989 | 18210 ft | 315 kts | 195° |
| 2026-04-17 21:26 | 50.33872 | -1.67579 | 18209 ft | 315 kts | 195° |
| 2026-04-17 21:26 | 50.31714 | -1.68165 | 18208 ft | 314 kts | 195° |
| 2026-04-17 21:26 | 50.29562 | -1.68749 | 18209 ft | 314 kts | 195° |
| 2026-04-17 21:26 | 50.27404 | -1.69329 | 18210 ft | 314 kts | 195° |
| 2026-04-17 21:27 | 50.25250 | -1.69910 | 18213 ft | 314 kts | 195° |
| 2026-04-17 21:27 | 50.23091 | -1.70492 | 18215 ft | 315 kts | 195° |
| 2026-04-17 21:27 | 50.20932 | -1.71068 | 18215 ft | 314 kts | 194° |
| 2026-04-17 21:27 | 50.18774 | -1.71644 | 18213 ft | 314 kts | 194° |
| 2026-04-17 21:28 | 50.16617 | -1.72222 | 18218 ft | 314 kts | 195° |
| 2026-04-17 21:28 | 50.14460 | -1.72803 | 18216 ft | 314 kts | 195° |
| 2026-04-17 21:28 | 50.12334 | -1.73378 | 18213 ft | 314 kts | 195° |
| 2026-04-17 21:28 | 50.10184 | -1.73957 | 17993 ft | 313 kts | 195° |
| 2026-04-17 21:29 | 50.08069 | -1.74522 | 17557 ft | 311 kts | 194° |
| 2026-04-17 21:29 | 50.05950 | -1.75087 | 17186 ft | 308 kts | 194° |
| 2026-04-17 21:29 | 50.03849 | -1.75649 | 16818 ft | 304 kts | 194° |
| 2026-04-17 21:29 | 50.01773 | -1.76207 | 16465 ft | 301 kts | 194° |
| 2026-04-17 21:30 | 49.99720 | -1.76758 | 16112 ft | 298 kts | 194° |
| 2026-04-17 21:30 | 49.97682 | -1.77305 | 15761 ft | 296 kts | 194° |
| 2026-04-17 21:30 | 49.95653 | -1.77848 | 15414 ft | 294 kts | 194° |
| 2026-04-17 21:30 | 49.93643 | -1.78384 | 15069 ft | 292 kts | 194° |
| 2026-04-17 21:31 | 49.91642 | -1.78917 | 14727 ft | 291 kts | 194° |
| 2026-04-17 21:31 | 49.89652 | -1.79447 | 14382 ft | 289 kts | 194° |
| 2026-04-17 21:31 | 49.87675 | -1.79974 | 14040 ft | 288 kts | 194° |
| 2026-04-17 21:31 | 49.85706 | -1.80500 | 13669 ft | 286 kts | 194° |
| 2026-04-17 21:32 | 49.83749 | -1.81022 | 13317 ft | 284 kts | 194° |
| 2026-04-17 21:32 | 49.81811 | -1.81537 | 12983 ft | 281 kts | 194° |
| 2026-04-17 21:32 | 49.79890 | -1.82045 | 12643 ft | 279 kts | 194° |
| 2026-04-17 21:32 | 49.77984 | -1.82547 | 12299 ft | 277 kts | 194° |
| 2026-04-17 21:33 | 49.76118 | -1.83041 | 11968 ft | 275 kts | 193° |
| 2026-04-17 21:33 | 49.74242 | -1.83537 | 11619 ft | 273 kts | 193° |
| 2026-04-17 21:33 | 49.72374 | -1.84034 | 11276 ft | 272 kts | 193° |
| 2026-04-17 21:33 | 49.70516 | -1.84530 | 10931 ft | 270 kts | 193° |
| 2026-04-17 21:34 | 49.68665 | -1.85019 | 10583 ft | 269 kts | 193° |
| 2026-04-17 21:34 | 49.66825 | -1.85504 | 10233 ft | 268 kts | 192° |
| 2026-04-17 21:34 | 49.63160 | -1.86473 | 9487 ft | 266 kts | 192° |
| 2026-04-17 21:35 | 49.61339 | -1.86953 | 9127 ft | 264 kts | 192° |
| 2026-04-17 21:35 | 49.59519 | -1.87433 | 8594 ft | 268 kts | 192° |
| 2026-04-17 21:35 | 49.57679 | -1.87919 | 8174 ft | 268 kts | 192° |
| 2026-04-17 21:35 | 49.55847 | -1.88401 | 7786 ft | 266 kts | 192° |
| 2026-04-17 21:36 | 49.54030 | -1.88876 | 7405 ft | 264 kts | 192° |
| 2026-04-17 21:36 | 49.52216 | -1.89346 | 7021 ft | 263 kts | 192° |
| 2026-04-17 21:36 | 49.50415 | -1.89816 | 6613 ft | 262 kts | 192° |
| 2026-04-17 21:36 | 49.48624 | -1.90285 | 6212 ft | 261 kts | 192° |
| 2026-04-17 21:37 | 49.46863 | -1.90748 | 5802 ft | 259 kts | 191° |
| 2026-04-17 21:37 | 49.45073 | -1.91219 | 5417 ft | 257 kts | 191° |
| 2026-04-17 21:37 | 49.43341 | -1.91672 | 5018 ft | 255 kts | 191° |
| 2026-04-17 21:37 | 49.41595 | -1.92124 | 4607 ft | 245 kts | 191° |
| 2026-04-17 21:38 | 49.39973 | -1.92543 | 4229 ft | 234 kts | 191° |
| 2026-04-17 21:38 | 49.38376 | -1.92954 | 3868 ft | 228 kts | 191° |
| 2026-04-17 21:38 | 49.36835 | -1.93353 | 3492 ft | 221 kts | 192° |
| 2026-04-17 21:38 | 49.35340 | -1.93741 | 3123 ft | 214 kts | 192° |
| 2026-04-17 21:39 | 49.33895 | -1.94118 | 2782 ft | 208 kts | 192° |
| 2026-04-17 21:39 | 49.32516 | -1.94477 | 2548 ft | 197 kts | 192° |
| 2026-04-17 21:39 | 49.31189 | -1.94823 | 2538 ft | 187 kts | 192° |
| 2026-04-17 21:39 | 49.29933 | -1.95152 | 2452 ft | 184 kts | 193° |
| 2026-04-17 21:40 | 49.28661 | -1.95486 | 2376 ft | 183 kts | 193° |
| 2026-04-17 21:40 | 49.27424 | -1.95811 | 2300 ft | 183 kts | 193° |
| 2026-04-17 21:40 | 49.26170 | -1.96138 | 2214 ft | 182 kts | 193° |
| 2026-04-17 21:40 | 49.24924 | -1.96477 | 2136 ft | 182 kts | 197° |
| 2026-04-17 21:41 | 49.23808 | -1.97230 | 2052 ft | 168 kts | 218° |
| 2026-04-17 21:41 | 49.23005 | -1.98391 | 2007 ft | 150 kts | 236° |
| 2026-04-17 21:41 | 49.22519 | -1.99729 | 2000 ft | 140 kts | 252° |
| 2026-04-17 21:41 | 49.22309 | -2.01157 | 2002 ft | 136 kts | 263° |
| 2026-04-17 21:42 | 49.22193 | -2.02579 | 2005 ft | 134 kts | 264° |
| 2026-04-17 21:42 | 49.22077 | -2.04000 | 2020 ft | 133 kts | 263° |
| 2026-04-17 21:42 | 49.21962 | -2.05412 | 1968 ft | 134 kts | 264° |
| 2026-04-17 21:42 | 49.21846 | -2.06819 | 1818 ft | 133 kts | 264° |
| 2026-04-17 21:43 | 49.21731 | -2.08223 | 1653 ft | 133 kts | 264° |
| 2026-04-17 21:43 | 49.21616 | -2.09619 | 1473 ft | 132 kts | 264° |
| 2026-04-17 21:43 | 49.21503 | -2.10996 | 1299 ft | 132 kts | 264° |
| 2026-04-17 21:43 | 49.21387 | -2.12401 | 1117 ft | 132 kts | 264° |
| 2026-04-17 21:44 | 49.21271 | -2.13800 | 929 ft | 133 kts | 264° |
| 2026-04-17 21:44 | 49.21155 | -2.15203 | 742 ft | 133 kts | 264° |
| 2026-04-17 21:44 | 49.21040 | -2.16612 | 588 ft | 134 kts | 264° |
| 2026-04-17 21:44 | 49.20925 | -2.18019 | 381 ft | 133 kts | 264° |
| 2026-04-17 21:45 | 49.20823 | -2.19349 | 286 ft | 109 kts | 263° |
| 2026-04-17 21:45 | 49.20746 | -2.20232 | 283 ft | 58 kts | 263° |
| 2026-04-17 21:45 | 49.20717 | -2.20570 | 286 ft | 22 kts | 259° |
| 2026-04-17 21:45 | 49.20652 | -2.20687 | 284 ft | 15 kts | 165° |
| 2026-04-17 21:46 | 49.20627 | -2.20588 | 284 ft | 7 kts | 96° |
| 2026-04-17 21:46 | 49.20621 | -2.20521 | 284 ft | 6 kts | 98° |
| 2026-04-17 21:46 | 49.20605 | -2.20428 | 284 ft | 15 kts | 107° |
| 2026-04-17 21:46 | 49.20574 | -2.20275 | 287 ft | 14 kts | 107° |
| 2026-04-17 21:47 | 49.20548 | -2.20138 | 287 ft | 13 kts | 106° |
| 2026-04-17 21:47 | 49.20523 | -2.20013 | 284 ft | 12 kts | 107° |
| 2026-04-17 21:47 | 49.20481 | -2.19925 | 284 ft | 10 kts | 160° |
| 2026-04-17 21:47 | 49.20433 | -2.19874 | 284 ft | 8 kts | 103° |
| 2026-04-17 21:48 | 49.20437 | -2.19793 | 284 ft | 7 kts | 85° |
| 2026-04-17 21:48 | 49.20442 | -2.19722 | 284 ft | 6 kts | 84° |
| 2026-04-17 21:48 | 49.20440 | -2.19662 | 284 ft | 5 kts | 96° |
| 2026-04-17 21:48 | 49.20458 | -2.19632 | 286 ft | 3 kts | 20° |
| 2026-04-17 21:49 | 49.20478 | -2.19623 | 289 ft | 2 kts | 18° |
| 2026-04-17 21:49 | 49.20489 | -2.19618 | 286 ft | 0 kts | 16° |